RJTJ(METAR)
12/16 16:00
METAR RJTJ 160700Z VRB02KT 9999 FEW030 12/M04 Q1007 RMK 1CU030
A2976=
戻る
トップページへ戻る
IMOC Co,.Ltd.